Time;durP1;ratioP1;P1;durP2;ratioP2;P2;SDS_P1;SDS_P2;PMS_P1;PMS_P2;Temp;Humidity;BMP_temperature;BMP_pressure;BME280_temperature;BME280_humidity;BME280_pressure;Samples;Min_cycle;Max_cycle;Signal;HPM_P1;HPM_P2
2021/05/25 00:00:32;;;;;;;3.20;2.13;;;12.20;99.90;;;;;;5082001;28;20204;-50
2021/05/25 00:03:01;;;;;;;2.67;2.47;;;12.10;99.90;;;;;;5083353;28;20213;-44
2021/05/25 00:05:30;;;;;;;5.40;2.47;;;12.20;99.90;;;;;;5067277;28;20731;-47
2021/05/25 00:07:57;;;;;;;2.90;2.20;;;12.10;99.90;;;;;;5082378;28;20192;-47
2021/05/25 00:10:25;;;;;;;2.20;2.00;;;12.10;99.90;;;;;;5082838;28;20199;-46
2021/05/25 00:12:52;;;;;;;4.60;2.07;;;12.10;99.90;;;;;;5079429;28;20232;-45
2021/05/25 00:15:21;;;;;;;1.97;1.80;;;12.10;99.90;;;;;;5084401;28;20198;-45
2021/05/25 00:17:48;;;;;;;3.20;2.00;;;12.00;99.90;;;;;;5081003;28;20874;-47
2021/05/25 00:20:16;;;;;;;2.03;1.87;;;12.00;99.90;;;;;;5083404;28;20210;-48
2021/05/25 00:22:43;;;;;;;3.00;2.10;;;12.00;99.90;;;;;;5066517;28;20204;-46
2021/05/25 00:25:11;;;;;;;2.10;2.00;;;12.00;99.90;;;;;;5083848;28;20251;-46
2021/05/25 00:27:39;;;;;;;2.80;1.60;;;12.00;99.90;;;;;;5078710;28;20218;-46
2021/05/25 00:30:07;;;;;;;3.03;1.67;;;12.00;99.90;;;;;;5083674;28;20194;-44
2021/05/25 00:32:34;;;;;;;3.97;1.40;;;11.90;99.90;;;;;;5065115;28;20218;-47
2021/05/25 00:35:01;;;;;;;1.27;1.13;;;11.90;99.90;;;;;;5062818;28;20568;-44
2021/05/25 00:37:27;;;;;;;2.43;1.33;;;11.90;99.90;;;;;;5058178;28;20305;-46
2021/05/25 00:39:54;;;;;;;1.77;1.40;;;11.80;99.90;;;;;;5080546;28;20206;-46
2021/05/25 00:42:20;;;;;;;1.27;1.23;;;11.80;99.90;;;;;;5074814;28;20194;-46
2021/05/25 00:44:46;;;;;;;1.83;1.40;;;11.80;99.90;;;;;;5082359;28;20275;-45
2021/05/25 00:47:12;;;;;;;1.30;1.20;;;11.70;99.90;;;;;;5082849;28;20588;-47
2021/05/25 00:49:38;;;;;;;3.83;1.60;;;11.70;99.90;;;;;;5079968;28;21001;-42
2021/05/25 00:52:05;;;;;;;1.80;1.70;;;;;;;;;;5083782;28;20221;-44
2021/05/25 00:54:31;;;;;;;1.60;1.50;;;11.70;99.90;;;;;;5064234;28;20895;-44
2021/05/25 00:56:58;;;;;;;2.77;1.53;;;11.70;99.90;;;;;;5083497;28;20263;-46
2021/05/25 00:59:25;;;;;;;2.63;1.63;;;11.70;99.90;;;;;;5079826;28;20196;-47
2021/05/25 01:01:51;;;;;;;1.50;1.40;;;11.70;99.90;;;;;;5093208;28;20198;-45
2021/05/25 01:04:18;;;;;;;2.30;1.73;;;11.70;99.90;;;;;;5102055;28;20556;-45
2021/05/25 01:06:44;;;;;;;2.20;1.50;;;11.70;99.90;;;;;;5077486;28;20218;-43
2021/05/25 01:09:11;;;;;;;1.90;1.50;;;11.70;99.90;;;;;;5062239;28;20255;-45
2021/05/25 01:11:38;;;;;;;1.47;1.37;;;11.60;99.90;;;;;;5079042;28;20832;-47
2021/05/25 01:14:06;;;;;;;4.70;1.87;;;11.60;99.90;;;;;;5077259;28;20202;-47
2021/05/25 01:16:32;;;;;;;1.50;1.40;;;11.60;99.90;;;;;;5078880;28;20210;-47
2021/05/25 01:18:58;;;;;;;2.23;1.60;;;11.60;99.90;;;;;;5081294;28;20206;-49
2021/05/25 01:21:26;;;;;;;1.67;1.57;;;11.60;99.90;;;;;;5074664;28;20694;-45
2021/05/25 01:23:54;;;;;;;1.80;1.40;;;11.60;99.90;;;;;;5083393;28;20198;-45
2021/05/25 01:26:20;;;;;;;2.17;1.67;;;11.60;99.90;;;;;;5066010;28;20217;-47
2021/05/25 01:28:49;;;;;;;2.07;1.40;;;11.60;99.90;;;;;;5081378;28;20200;-48
2021/05/25 01:31:16;;;;;;;2.60;1.60;;;11.60;99.90;;;;;;5080736;28;20194;-49
2021/05/25 01:33:44;;;;;;;1.30;1.30;;;11.60;99.90;;;;;;5081433;28;20186;-49
2021/05/25 01:36:12;;;;;;;1.80;1.70;;;11.60;99.90;;;;;;5082772;28;20755;-49
2021/05/25 01:38:39;;;;;;;2.67;1.20;;;11.70;99.90;;;;;;5080003;28;20204;-47
2021/05/25 01:41:08;;;;;;;1.47;1.30;;;11.60;99.90;;;;;;5069059;28;20197;-45
2021/05/25 01:43:34;;;;;;;1.70;1.30;;;11.60;99.90;;;;;;5084926;28;20197;-44
2021/05/25 01:46:00;;;;;;;1.60;1.40;;;11.70;99.90;;;;;;5087525;28;20746;-45
2021/05/25 01:48:26;;;;;;;2.77;1.63;;;11.60;99.90;;;;;;5079547;28;20197;-51
2021/05/25 01:50:53;;;;;;;2.37;1.80;;;11.60;99.90;;;;;;5082802;28;20205;-47
2021/05/25 01:53:21;;;;;;;2.57;1.50;;;11.60;99.90;;;;;;5075148;28;20275;-47
2021/05/25 01:55:49;;;;;;;2.60;1.47;;;11.60;99.90;;;;;;5067917;28;21043;-44
2021/05/25 01:58:19;;;;;;;3.70;1.90;;;11.60;99.90;;;;;;5072946;28;20567;-46
2021/05/25 02:00:47;;;;;;;1.63;1.50;;;11.60;99.90;;;;;;5081083;28;20258;-46
2021/05/25 02:03:14;;;;;;;3.73;1.70;;;11.60;99.90;;;;;;5081755;28;20182;-47
2021/05/25 02:05:40;;;;;;;2.77;1.53;;;11.60;99.90;;;;;;5080487;28;20214;-45
2021/05/25 02:08:08;;;;;;;3.27;1.70;;;11.50;99.90;;;;;;5082008;28;20239;-46
2021/05/25 02:10:35;;;;;;;1.73;1.50;;;11.50;99.90;;;;;;5075343;28;20795;-45
2021/05/25 02:13:04;;;;;;;2.40;1.30;;;11.50;99.90;;;;;;5068702;28;20213;-49
2021/05/25 02:15:31;;;;;;;2.70;1.47;;;11.50;99.90;;;;;;5076814;28;20193;-50
2021/05/25 02:18:04;;;;;;;3.30;1.50;;;11.50;99.90;;;;;;5083097;28;20198;-44
2021/05/25 02:20:30;;;;;;;2.27;1.60;;;11.50;99.90;;;;;;5072906;28;20194;-47
2021/05/25 02:22:57;;;;;;;2.40;1.27;;;11.50;99.90;;;;;;5102685;28;20205;-45
2021/05/25 02:25:23;;;;;;;1.50;1.40;;;11.50;99.90;;;;;;5094959;28;20189;-47
2021/05/25 02:27:49;;;;;;;1.87;1.57;;;11.40;99.90;;;;;;5067417;28;20284;-45
2021/05/25 02:30:16;;;;;;;3.17;1.57;;;11.50;99.90;;;;;;5079323;28;20693;-49
2021/05/25 02:32:43;;;;;;;1.70;1.60;;;11.40;99.90;;;;;;5080642;28;20217;-47
2021/05/25 02:35:10;;;;;;;3.03;1.50;;;11.40;99.90;;;;;;5077296;28;20356;-49
2021/05/25 02:37:36;;;;;;;1.77;1.67;;;11.40;99.90;;;;;;5079310;28;20281;-50
2021/05/25 02:40:04;;;;;;;1.60;1.50;;;11.40;99.90;;;;;;5080355;28;20193;-47
2021/05/25 02:42:30;;;;;;;1.83;1.73;;;11.40;99.90;;;;;;5060812;28;20206;-45
2021/05/25 02:44:56;;;;;;;1.87;1.73;;;11.40;99.90;;;;;;5086144;28;20210;-44
2021/05/25 02:47:22;;;;;;;3.17;1.57;;;11.50;99.90;;;;;;5081329;28;20239;-47
2021/05/25 02:49:49;;;;;;;2.33;1.77;;;11.50;99.90;;;;;;5084581;28;20190;-46
2021/05/25 02:52:15;;;;;;;1.97;1.50;;;11.40;99.90;;;;;;5084187;28;20218;-47
2021/05/25 02:54:42;;;;;;;4.27;2.13;;;11.50;99.90;;;;;;5083544;28;20182;-46
2021/05/25 02:57:09;;;;;;;1.90;1.80;;;11.40;99.90;;;;;;5072015;28;20221;-48
2021/05/25 02:59:35;;;;;;;3.47;1.73;;;11.50;99.90;;;;;;5081585;28;20780;-44
2021/05/25 03:02:02;;;;;;;2.83;2.07;;;11.40;99.90;;;;;;5086038;28;20185;-46
2021/05/25 03:04:28;;;;;;;1.77;1.57;;;11.50;99.90;;;;;;5076853;28;20241;-46
2021/05/25 03:06:56;;;;;;;1.80;1.70;;;11.40;99.90;;;;;;5086119;28;20213;-46
2021/05/25 03:09:22;;;;;;;1.53;1.40;;;11.50;99.90;;;;;;5078653;28;20551;-49
2021/05/25 03:11:48;;;;;;;1.93;1.70;;;11.50;99.90;;;;;;5075311;28;20230;-45
2021/05/25 03:14:14;;;;;;;1.70;1.60;;;11.50;99.90;;;;;;5070395;28;20218;-48
2021/05/25 03:16:40;;;;;;;1.90;1.63;;;11.50;99.90;;;;;;5082877;28;20210;-49
2021/05/25 03:19:06;;;;;;;2.40;1.70;;;11.50;99.90;;;;;;5083864;28;20243;-45
2021/05/25 03:21:32;;;;;;;1.70;1.60;;;11.50;99.90;;;;;;5079471;28;20852;-43
2021/05/25 03:23:59;;;;;;;1.93;1.73;;;11.50;99.90;;;;;;5085307;28;20194;-44
2021/05/25 03:26:26;;;;;;;2.10;1.90;;;11.40;99.90;;;;;;5082210;28;20243;-46
2021/05/25 03:28:52;;;;;;;2.80;2.00;;;11.40;99.90;;;;;;5073681;28;20263;-44
2021/05/25 03:31:18;;;;;;;2.73;1.77;;;11.40;99.90;;;;;;5084281;28;20208;-48
2021/05/25 03:33:44;;;;;;;3.00;1.90;;;11.40;99.90;;;;;;5103976;28;20260;-44
2021/05/25 03:36:10;;;;;;;3.27;2.00;;;11.30;99.90;;;;;;5105187;28;20209;-49
2021/05/25 03:38:36;;;;;;;2.87;1.93;;;11.30;99.90;;;;;;5076684;28;20198;-44
2021/05/25 03:41:03;;;;;;;4.43;2.07;;;11.30;99.90;;;;;;5084797;28;20186;-44
2021/05/25 03:43:29;;;;;;;3.37;2.00;;;11.40;99.90;;;;;;5065500;28;20288;-44
2021/05/25 03:45:56;;;;;;;2.50;2.20;;;11.30;99.90;;;;;;5085095;28;20271;-44
2021/05/25 03:48:22;;;;;;;3.33;2.20;;;11.30;99.90;;;;;;5082458;28;20194;-46
2021/05/25 03:50:48;;;;;;;3.70;2.90;;;11.30;99.90;;;;;;5083831;28;20186;-44
2021/05/25 03:53:14;;;;;;;2.50;2.20;;;11.30;99.90;;;;;;5083570;28;20194;-46
2021/05/25 03:55:53;;;;;;;2.83;2.57;;;11.30;99.90;;;;;;5080957;28;20244;-45
2021/05/25 04:01:04;;;;;;;4.23;3.87;;;11.20;99.90;;;;;;5076739;28;20678;-44
2021/05/25 04:03:30;;;;;;;4.33;3.27;;;11.10;99.90;;;;;;5074370;28;20209;-48
2021/05/25 04:05:57;;;;;;;7.43;4.17;;;11.20;99.90;;;;;;5080130;28;20217;-47
2021/05/25 04:08:23;;;;;;;3.37;3.07;;;11.20;99.90;;;;;;5077394;28;20194;-46
2021/05/25 04:10:50;;;;;;;2.63;2.43;;;11.20;99.90;;;;;;5080650;28;20297;-45
2021/05/25 04:13:17;;;;;;;3.17;2.90;;;11.20;99.90;;;;;;5076599;28;20201;-45
2021/05/25 04:15:47;;;;;;;4.30;3.90;;;11.20;99.90;;;;;;5076537;28;20296;-48
2021/05/25 04:18:14;;;;;;;6.03;4.60;;;11.10;99.90;;;;;;5066628;28;20205;-46
2021/05/25 04:20:40;;;;;;;3.03;2.83;;;11.10;99.90;;;;;;5075895;28;20205;-44
2021/05/25 04:23:07;;;;;;;3.60;3.33;;;11.10;99.90;;;;;;5084420;28;20201;-46
2021/05/25 04:25:33;;;;;;;2.30;2.10;;;11.00;99.90;;;;;;5064635;28;20210;-47
2021/05/25 04:28:00;;;;;;;3.80;3.00;;;11.00;99.90;;;;;;5073614;28;20642;-46
2021/05/25 04:30:26;;;;;;;2.33;2.13;;;11.00;99.90;;;;;;5065233;28;20584;-44
2021/05/25 04:32:53;;;;;;;3.00;2.80;;;11.00;99.90;;;;;;5073904;28;20229;-44
2021/05/25 04:35:20;;;;;;;3.40;2.97;;;11.00;99.90;;;;;;5082482;28;20227;-44
2021/05/25 04:37:46;;;;;;;3.70;3.00;;;11.00;99.90;;;;;;5078450;28;20761;-47
2021/05/25 04:40:13;;;;;;;3.40;3.10;;;11.00;99.90;;;;;;5075113;28;20212;-45
2021/05/25 04:42:40;;;;;;;3.03;2.77;;;11.00;99.90;;;;;;5083822;28;20232;-44
2021/05/25 04:45:07;;;;;;;3.87;2.93;;;11.00;99.90;;;;;;5066062;28;20651;-45
2021/05/25 04:47:33;;;;;;;4.53;3.93;;;11.00;99.90;;;;;;5079525;28;20283;-49
2021/05/25 04:50:00;;;;;;;3.47;2.90;;;11.00;99.90;;;;;;5063471;28;21131;-45
2021/05/25 04:52:27;;;;;;;3.53;2.90;;;11.00;99.90;;;;;;5076519;28;20240;-46
2021/05/25 04:54:55;;;;;;;2.73;2.30;;;11.00;99.90;;;;;;5074268;28;20193;-49
2021/05/25 04:57:22;;;;;;;2.60;2.20;;;10.90;99.90;;;;;;5082045;28;20225;-44
2021/05/25 04:59:49;;;;;;;2.70;2.50;;;10.90;99.90;;;;;;5078511;28;20194;-45
2021/05/25 05:02:15;;;;;;;2.60;2.43;;;10.90;99.90;;;;;;5064821;28;20190;-45
2021/05/25 05:04:41;;;;;;;2.20;2.00;;;10.90;99.90;;;;;;5079102;28;20213;-47
2021/05/25 05:07:08;;;;;;;2.47;2.27;;;10.90;99.90;;;;;;5072716;28;20240;-46
2021/05/25 05:09:35;;;;;;;2.80;2.60;;;10.90;99.90;;;;;;5073411;28;20202;-47
2021/05/25 05:12:01;;;;;;;3.03;2.83;;;10.90;99.90;;;;;;5078187;28;20214;-47
2021/05/25 05:14:27;;;;;;;4.00;2.57;;;10.90;99.90;;;;;;5081428;28;20244;-46
2021/05/25 05:16:53;;;;;;;5.23;3.43;;;10.90;99.90;;;;;;5068499;28;21328;-46
2021/05/25 05:19:19;;;;;;;7.23;4.13;;;10.80;99.90;;;;;;5077558;28;20690;-46
2021/05/25 05:21:45;;;;;;;4.07;3.23;;;10.80;99.90;;;;;;5079824;28;20186;-46
2021/05/25 05:24:12;;;;;;;5.77;2.70;;;10.80;99.90;;;;;;5076119;28;20202;-46
2021/05/25 05:26:38;;;;;;;3.53;2.43;;;10.80;99.90;;;;;;5074126;28;20824;-46
2021/05/25 05:29:05;;;;;;;1.97;1.83;;;10.70;99.90;;;;;;5082706;28;20255;-44
2021/05/25 05:31:31;;;;;;;3.03;1.90;;;10.70;99.90;;;;;;5079984;28;20233;-45
2021/05/25 05:33:57;;;;;;;6.87;3.83;;;10.70;99.90;;;;;;5067368;28;20261;-43
2021/05/25 05:36:23;;;;;;;4.30;2.83;;;10.70;99.90;;;;;;5075428;28;20251;-48
2021/05/25 05:38:49;;;;;;;3.73;2.53;;;10.70;99.90;;;;;;5070365;28;20212;-44
2021/05/25 05:41:16;;;;;;;2.50;2.03;;;10.70;99.90;;;;;;5082707;28;20189;-47
2021/05/25 05:43:42;;;;;;;4.10;2.10;;;10.70;99.90;;;;;;5074137;28;20217;-43
2021/05/25 05:46:08;;;;;;;5.43;3.50;;;10.60;99.90;;;;;;5081403;28;20222;-44
2021/05/25 05:48:35;;;;;;;2.63;2.33;;;10.60;99.90;;;;;;5054591;28;20962;-44
2021/05/25 05:51:01;;;;;;;3.53;2.00;;;10.60;99.90;;;;;;5069703;28;20551;-47
2021/05/25 05:53:27;;;;;;;5.13;3.00;;;10.60;99.90;;;;;;5069784;28;20219;-48
2021/05/25 05:55:53;;;;;;;3.10;2.40;;;10.60;99.90;;;;;;5063832;28;20218;-48
2021/05/25 05:58:20;;;;;;;2.30;2.10;;;10.60;99.90;;;;;;5070532;28;20204;-44
2021/05/25 06:00:47;;;;;;;3.00;2.33;;;10.70;99.90;;;;;;5077878;28;20198;-47
2021/05/25 06:03:14;;;;;;;4.37;2.53;;;10.70;99.90;;;;;;5055603;28;20258;-47
2021/05/25 06:05:40;;;;;;;11.93;4.30;;;10.70;99.90;;;;;;5080375;28;20236;-44
2021/05/25 06:08:09;;;;;;;4.53;3.60;;;10.80;99.90;;;;;;5071976;28;20201;-46
2021/05/25 06:10:37;;;;;;;5.40;3.40;;;10.90;99.90;;;;;;5074498;28;20320;-44
2021/05/25 06:13:04;;;;;;;4.90;2.70;;;11.00;99.90;;;;;;5079501;28;20300;-48
2021/05/25 06:15:33;;;;;;;3.47;3.20;;;11.10;99.90;;;;;;5076679;28;20209;-45
2021/05/25 06:17:59;;;;;;;2.77;2.50;;;11.20;99.90;;;;;;5074684;28;20205;-44
2021/05/25 06:20:25;;;;;;;3.10;2.80;;;11.20;99.90;;;;;;5072483;28;20201;-46
2021/05/25 06:22:51;;;;;;;3.57;2.90;;;11.30;99.90;;;;;;5077384;28;20201;-45
2021/05/25 06:25:17;;;;;;;3.07;2.80;;;11.30;99.90;;;;;;5068488;28;20198;-45
2021/05/25 06:27:44;;;;;;;3.37;2.47;;;11.30;99.90;;;;;;5081446;28;20271;-45
2021/05/25 06:30:12;;;;;;;4.70;2.93;;;11.30;99.90;;;;;;5076835;28;20202;-47
2021/05/25 06:32:39;;;;;;;3.50;3.10;;;11.20;99.90;;;;;;5083512;28;20224;-47
2021/05/25 06:35:07;;;;;;;3.77;3.00;;;11.20;99.90;;;;;;5065267;28;20263;-46
2021/05/25 06:37:33;;;;;;;3.63;2.90;;;11.20;99.90;;;;;;5082774;28;20208;-46
2021/05/25 06:39:59;;;;;;;2.93;2.73;;;11.10;99.90;;;;;;5074554;28;20198;-46
2021/05/25 06:42:26;;;;;;;5.87;3.13;;;11.00;99.90;;;;;;5071442;28;20528;-46
2021/05/25 06:44:52;;;;;;;3.53;3.23;;;11.00;99.90;;;;;;5085428;28;20202;-46
2021/05/25 06:47:18;;;;;;;4.37;3.80;;;11.00;99.90;;;;;;5077050;28;20894;-44
2021/05/25 06:49:45;;;;;;;4.83;3.33;;;11.00;99.90;;;;;;5085275;28;20227;-44
2021/05/25 06:52:11;;;;;;;4.83;4.07;;;11.00;99.90;;;;;;5068182;28;20217;-45
2021/05/25 06:54:37;;;;;;;6.33;4.40;;;11.10;99.90;;;;;;5081453;28;20687;-46
2021/05/25 06:57:04;;;;;;;4.10;3.80;;;11.20;99.90;;;;;;5075514;28;20229;-46
2021/05/25 06:59:32;;;;;;;5.80;4.67;;;11.10;99.90;;;;;;5079088;28;20212;-45
2021/05/25 07:01:58;;;;;;;6.10;5.03;;;11.00;99.90;;;;;;5078141;28;20277;-48
2021/05/25 07:04:24;;;;;;;7.87;4.37;;;11.10;99.90;;;;;;5058051;28;20190;-47
2021/05/25 07:06:51;;;;;;;7.43;5.50;;;11.10;99.90;;;;;;5066464;28;20239;-45
2021/05/25 07:09:17;;;;;;;5.90;4.93;;;11.00;99.90;;;;;;5075766;28;20186;-45
2021/05/25 07:11:43;;;;;;;6.50;5.80;;;11.00;99.90;;;;;;5080647;28;20210;-44
2021/05/25 07:14:10;;;;;;;7.40;5.37;;;11.00;99.90;;;;;;5076629;28;20285;-46
2021/05/25 07:16:36;;;;;;;5.30;4.73;;;11.10;99.90;;;;;;5085623;28;20624;-49
2021/05/25 07:19:03;;;;;;;6.03;4.90;;;11.00;99.90;;;;;;5076932;28;20225;-47
2021/05/25 07:21:29;;;;;;;5.97;5.47;;;11.00;99.90;;;;;;5083876;28;20184;-44
2021/05/25 07:23:56;;;;;;;14.13;7.37;;;11.10;99.90;;;;;;5070759;28;20736;-43
2021/05/25 07:26:23;;;;;;;6.50;4.93;;;11.20;99.90;;;;;;5077274;28;21058;-46
2021/05/25 07:28:50;;;;;;;6.50;5.87;;;11.20;99.90;;;;;;5073614;28;20689;-43
2021/05/25 07:31:17;;;;;;;7.73;6.20;;;11.10;99.90;;;;;;5074045;28;20213;-46
2021/05/25 07:33:44;;;;;;;6.43;5.87;;;11.10;99.90;;;;;;5080170;28;20198;-44
2021/05/25 07:36:10;;;;;;;8.57;6.37;;;11.20;99.90;;;;;;5078949;28;20214;-47
2021/05/25 07:38:36;;;;;;;6.10;5.50;;;11.30;99.90;;;;;;5070144;28;20260;-46
2021/05/25 07:41:03;;;;;;;5.97;5.13;;;11.30;99.90;;;;;;5062104;28;20190;-45
2021/05/25 07:43:31;;;;;;;6.30;5.17;;;11.30;99.90;;;;;;5078334;28;20220;-45
2021/05/25 07:45:57;;;;;;;10.20;5.80;;;11.40;99.90;;;;;;5075705;28;20910;-44
2021/05/25 07:48:23;;;;;;;5.17;4.47;;;11.40;99.90;;;;;;5077674;28;20718;-44
2021/05/25 07:50:50;;;;;;;5.40;4.90;;;11.40;99.90;;;;;;5074753;28;20198;-47
2021/05/25 07:53:16;;;;;;;3.80;3.50;;;11.60;99.90;;;;;;5068735;28;20221;-44
2021/05/25 07:55:43;;;;;;;4.43;4.03;;;11.60;99.90;;;;;;5082247;28;20621;-46
2021/05/25 07:58:10;;;;;;;3.10;2.80;;;11.80;99.90;;;;;;5077570;28;20255;-45
2021/05/25 08:00:36;;;;;;;2.60;2.40;;;11.80;99.90;;;;;;5072547;28;20248;-48
2021/05/25 08:03:03;;;;;;;3.40;2.87;;;11.70;99.90;;;;;;5071900;28;20202;-47
2021/05/25 08:05:31;;;;;;;3.27;3.07;;;11.80;99.90;;;;;;5074628;28;20198;-48
2021/05/25 08:07:57;;;;;;;8.73;3.53;;;11.80;99.90;;;;;;5078241;28;20186;-47
2021/05/25 08:10:24;;;;;;;3.00;2.80;;;11.90;99.90;;;;;;5060074;28;20222;-47
2021/05/25 08:12:50;;;;;;;3.00;2.80;;;11.90;99.90;;;;;;5078917;28;20741;-44
2021/05/25 08:15:18;;;;;;;2.63;2.43;;;12.00;99.90;;;;;;5068105;28;20551;-50
2021/05/25 08:20:36;;;;;;;1.47;1.37;;;12.30;99.90;;;;;;5057771;28;20210;-44
2021/05/25 08:23:06;;;;;;;2.87;1.40;;;12.60;99.90;;;;;;5081815;28;20236;-47
2021/05/25 08:25:32;;;;;;;3.43;1.57;;;12.60;99.90;;;;;;5070332;28;20201;-45
2021/05/25 08:28:01;;;;;;;1.70;1.60;;;12.70;99.90;;;;;;5077925;28;20232;-46
2021/05/25 08:30:32;;;;;;;3.40;2.80;;;12.60;99.90;;;;;;5075086;28;20239;-48
2021/05/25 08:32:58;;;;;;;2.00;1.90;;;12.40;99.90;;;;;;5081325;28;20210;-47
2021/05/25 08:35:28;;;;;;;2.37;2.13;;;12.30;99.90;;;;;;5072788;28;20186;-46
2021/05/25 08:37:57;;;;;;;1.90;1.80;;;12.30;99.90;;;;;;5075026;28;20277;-45
2021/05/25 08:40:24;;;;;;;1.47;1.37;;;12.20;99.90;;;;;;5058502;28;20251;-48
2021/05/25 08:42:51;;;;;;;1.30;1.20;;;12.00;99.90;;;;;;5078452;28;20198;-47
2021/05/25 08:45:20;;;;;;;1.17;1.00;;;11.90;99.90;;;;;;5072068;28;20291;-49
2021/05/25 08:47:49;;;;;;;2.50;1.40;;;11.80;99.90;;;;;;5080538;28;20663;-47
2021/05/25 08:50:18;;;;;;;1.30;0.90;;;11.70;99.90;;;;;;5078678;28;20194;-46
2021/05/25 08:52:44;;;;;;;0.87;0.80;;;11.60;99.90;;;;;;5078397;28;20218;-46
2021/05/25 08:55:11;;;;;;;0.97;0.97;;;11.60;99.90;;;;;;5070765;28;20284;-48
2021/05/25 08:57:38;;;;;;;1.63;1.30;;;11.80;99.90;;;;;;5074943;28;20244;-45
2021/05/25 09:00:07;;;;;;;2.20;1.17;;;12.00;99.90;;;;;;5080492;28;20207;-49
2021/05/25 09:02:34;;;;;;;4.10;2.43;;;12.10;99.90;;;;;;5074971;28;20212;-47
2021/05/25 09:05:06;;;;;;;1.53;1.17;;;12.30;99.90;;;;;;5076279;28;20198;-46
2021/05/25 09:07:41;;;;;;;1.77;1.67;;;12.40;99.90;;;;;;5075016;28;20921;-48
2021/05/25 09:10:15;;;;;;;1.50;1.40;;;12.40;99.90;;;;;;5079983;28;20324;-46
2021/05/25 09:12:45;;;;;;;2.30;1.80;;;12.50;99.90;;;;;;5057917;28;20227;-53
2021/05/25 09:15:13;;;;;;;1.93;1.53;;;12.60;99.90;;;;;;5080213;28;20213;-49
2021/05/25 09:17:40;;;;;;;2.03;1.83;;;12.70;99.90;;;;;;5076416;28;20210;-50
2021/05/25 09:20:09;;;;;;;3.20;2.60;;;12.70;99.90;;;;;;5080886;28;20995;-46
2021/05/25 09:22:37;;;;;;;4.00;2.70;;;12.80;99.90;;;;;;5080033;28;20198;-48
2021/05/25 09:25:09;;;;;;;3.00;2.23;;;12.70;99.90;;;;;;5076161;28;20910;-46
2021/05/25 09:27:38;;;;;;;4.07;2.97;;;12.60;99.90;;;;;;5064399;28;20248;-52
2021/05/25 09:30:19;;;;;;;1.90;1.80;;;12.50;99.90;;;;;;5074335;28;20950;-49
2021/05/25 09:32:48;;;;;;;4.30;3.33;;;12.40;99.90;;;;;;5074784;28;20331;-50
2021/05/25 09:35:16;;;;;;;4.63;2.10;;;12.30;99.90;;;;;;5075694;28;20197;-45
2021/05/25 09:37:44;;;;;;;2.33;2.13;;;12.30;99.90;;;;;;5079162;28;20722;-47
2021/05/25 09:40:11;;;;;;;4.30;2.00;;;12.20;99.90;;;;;;5074947;28;20201;-49
2021/05/25 09:42:38;;;;;;;4.50;1.90;;;12.00;99.90;;;;;;5057610;28;20229;-46
2021/05/25 09:45:08;;;;;;;1.97;1.70;;;12.00;99.90;;;;;;5073381;28;21604;-46
2021/05/25 09:47:36;;;;;;;1.70;1.50;;;12.10;99.90;;;;;;5075660;28;20222;-47
2021/05/25 09:50:04;;;;;;;1.90;1.80;;;12.20;99.90;;;;;;5074909;28;20204;-44
2021/05/25 09:52:31;;;;;;;1.97;1.87;;;12.10;99.90;;;;;;5081828;28;20217;-48
2021/05/25 09:55:11;;;;;;;4.37;1.90;;;12.20;99.90;;;;;;5077351;28;20279;-46
2021/05/25 09:57:44;;;;;;;1.90;1.77;;;12.30;99.90;;;;;;5077974;28;20210;-45
2021/05/25 10:00:23;;;;;;;3.33;2.53;;;12.50;99.90;;;;;;5079716;28;20194;-45
2021/05/25 10:03:04;;;;;;;4.13;3.67;;;12.80;99.90;;;;;;5076863;28;20177;-50
2021/05/25 10:05:31;;;;;;;5.77;3.40;;;13.10;99.90;;;;;;5079878;28;20205;-50
2021/05/25 10:08:00;;;;;;;3.20;2.90;;;13.30;99.90;;;;;;5081565;28;20194;-48
2021/05/25 10:10:28;;;;;;;4.63;3.57;;;13.50;99.90;;;;;;5071732;28;20206;-50
2021/05/25 10:12:55;;;;;;;2.77;2.53;;;13.50;99.90;;;;;;5079802;28;20230;-50
2021/05/25 10:15:23;;;;;;;3.20;2.90;;;13.40;99.90;;;;;;5068319;28;21803;-46
2021/05/25 10:18:08;;;;;;;2.67;2.47;;;13.40;99.90;;;;;;5080777;28;20240;-51
2021/05/25 10:20:35;;;;;;;3.00;2.70;;;13.30;99.90;;;;;;5073295;28;20247;-48
2021/05/25 10:23:02;;;;;;;4.80;2.63;;;13.00;99.90;;;;;;5075008;28;20198;-53
2021/05/25 10:25:31;;;;;;;3.47;3.17;;;12.70;99.90;;;;;;5084404;28;20190;-50
2021/05/25 10:27:58;;;;;;;4.63;3.47;;;12.50;99.90;;;;;;5079353;28;20690;-50
2021/05/25 10:30:36;;;;;;;3.50;3.27;;;12.40;99.90;;;;;;5063545;28;20928;-50
2021/05/25 10:33:31;;;;;;;3.00;2.77;;;12.30;99.90;;;;;;5073429;28;20753;-50
2021/05/25 10:36:00;;;;;;;3.47;2.57;;;12.20;99.90;;;;;;5078293;28;20226;-50
2021/05/25 10:38:28;;;;;;;4.03;3.00;;;12.10;99.90;;;;;;5084415;28;20186;-46
2021/05/25 10:40:56;;;;;;;4.07;2.97;;;12.10;99.90;;;;;;5083210;28;20660;-51
2021/05/25 10:43:43;;;;;;;3.40;2.97;;;12.10;99.90;;;;;;5078905;28;20178;-46
2021/05/25 10:46:23;;;;;;;2.43;2.23;;;12.10;99.90;;;;;;5061945;28;20965;-45
2021/05/25 10:48:54;;;;;;;3.53;1.87;;;12.10;99.90;;;;;;5077233;28;20197;-48
2021/05/25 10:51:21;;;;;;;2.73;1.77;;;12.20;99.90;;;;;;5075665;28;20273;-46
2021/05/25 10:54:22;;;;;;;1.70;1.60;;;12.30;99.90;;;;;;5081448;28;20567;-44
2021/05/25 10:56:49;;;;;;;2.80;2.60;;;12.50;99.90;;;;;;5084124;28;20209;-47
2021/05/25 10:59:16;;;;;;;4.40;2.77;;;12.70;99.90;;;;;;5074963;28;20275;-48
2021/05/25 11:01:43;;;;;;;3.73;2.90;;;13.10;99.90;;;;;;5069491;28;20202;-49
2021/05/25 11:04:10;;;;;;;5.50;2.80;;;13.40;99.90;;;;;;5073174;28;20206;-52
2021/05/25 11:06:37;;;;;;;3.00;2.80;;;13.40;99.90;;;;;;5076977;28;20719;-47
2021/05/25 11:09:23;;;;;;;3.23;2.50;;;13.20;99.90;;;;;;5080227;28;20546;-50
2021/05/25 11:12:10;;;;;;;2.93;2.33;;;12.90;99.90;;;;;;5082586;28;20706;-48
2021/05/25 11:14:37;;;;;;;2.87;2.13;;;12.80;99.90;;;;;;5111092;28;20243;-47
2021/05/25 11:17:31;;;;;;;2.53;1.80;;;12.80;99.90;;;;;;5063036;28;20229;-46
2021/05/25 11:20:09;;;;;;;4.07;1.87;;;12.70;99.90;;;;;;5075640;28;20197;-50
2021/05/25 11:22:37;;;;;;;1.33;1.10;;;12.80;99.90;;;;;;5073021;28;20201;-48
2021/05/25 11:25:07;;;;;;;1.33;1.10;;;12.80;99.90;;;;;;5080212;28;20194;-52
2021/05/25 11:27:35;;;;;;;1.43;1.13;;;12.90;99.90;;;;;;5082835;28;20616;-45
2021/05/25 11:30:06;;;;;;;2.60;1.23;;;13.10;99.90;;;;;;5065319;28;20232;-48
2021/05/25 11:32:38;;;;;;;2.30;1.40;;;13.30;99.90;;;;;;5069284;28;20297;-48
2021/05/25 11:35:07;;;;;;;1.73;1.57;;;13.40;99.90;;;;;;5070695;28;20207;-50
2021/05/25 11:37:35;;;;;;;2.50;1.53;;;13.40;99.90;;;;;;5075286;28;20317;-50
2021/05/25 11:40:06;;;;;;;2.83;1.67;;;13.50;99.90;;;;;;5076725;28;20198;-49
2021/05/25 11:42:32;;;;;;;2.90;1.33;;;13.80;99.90;;;;;;5076233;28;20609;-52
2021/05/25 11:44:58;;;;;;;2.47;1.17;;;13.80;99.90;;;;;;5041084;28;1000619;-48
2021/05/25 11:47:25;;;;;;;2.13;1.60;;;13.70;99.90;;;;;;5080749;28;20206;-46
2021/05/25 11:49:52;;;;;;;6.77;2.20;;;13.70;99.90;;;;;;5067151;28;20213;-48
2021/05/25 11:52:28;;;;;;;3.60;1.60;;;13.60;99.90;;;;;;5075923;28;20856;-46
2021/05/25 11:54:58;;;;;;;2.63;1.43;;;13.60;99.90;;;;;;5072545;28;20205;-48
2021/05/25 11:57:34;;;;;;;2.10;1.90;;;13.70;99.90;;;;;;5077944;28;20310;-50
2021/05/25 12:00:04;;;;;;;3.90;1.93;;;13.80;99.90;;;;;;5074994;28;20225;-48
2021/05/25 12:02:39;;;;;;;1.37;1.27;;;14.10;99.90;;;;;;5082402;28;20205;-47
2021/05/25 12:05:11;;;;;;;1.60;1.50;;;14.30;99.90;;;;;;5061176;28;20210;-50
2021/05/25 12:07:39;;;;;;;1.70;1.40;;;14.50;99.90;;;;;;5079304;28;20266;-45
2021/05/25 12:10:08;;;;;;;5.43;2.10;;;14.60;99.90;;;;;;5062583;28;20213;-48
2021/05/25 12:12:39;;;;;;;1.97;1.17;;;14.70;99.90;;;;;;5076701;28;20225;-48
2021/05/25 12:15:18;;;;;;;2.27;1.60;;;15.00;99.90;;;;;;5070635;28;20198;-52
2021/05/25 12:17:46;;;;;;;2.27;1.40;;;15.10;99.90;;;;;;5076175;28;20689;-48
2021/05/25 12:20:17;;;;;;;2.00;1.27;;;15.00;99.90;;;;;;5064760;28;20205;-47
2021/05/25 12:22:44;;;;;;;4.37;1.70;;;14.80;99.90;;;;;;5079726;28;20225;-45
2021/05/25 12:25:16;;;;;;;1.77;1.23;;;14.80;99.90;;;;;;5074019;28;20915;-47
2021/05/25 12:27:43;;;;;;;3.37;1.40;;;14.90;99.90;;;;;;5079725;28;20226;-44
2021/05/25 12:30:10;;;;;;;1.73;1.23;;;14.90;99.90;;;;;;5072539;28;20203;-49
2021/05/25 12:32:37;;;;;;;3.90;1.77;;;14.80;99.90;;;;;;5074578;28;20714;-44
2021/05/25 12:35:04;;;;;;;3.87;1.97;;;14.70;99.90;;;;;;5070228;28;20651;-47
2021/05/25 12:37:30;;;;;;;2.87;1.73;;;14.80;99.90;;;;;;5075670;28;20229;-44
2021/05/25 12:40:04;;;;;;;3.90;1.73;;;15.00;99.90;;;;;;5075763;28;20202;-48
2021/05/25 12:42:35;;;;;;;1.80;1.50;;;15.30;99.90;;;;;;5075489;28;20197;-44
2021/05/25 12:45:06;;;;;;;2.57;1.40;;;15.20;99.90;;;;;;5078787;28;20206;-47
2021/05/25 12:47:48;;;;;;;4.83;1.90;;;14.90;99.90;;;;;;5082560;28;20252;-44
2021/05/25 12:50:15;;;;;;;3.20;1.67;;;14.70;99.90;;;;;;5077819;28;20190;-44
2021/05/25 12:52:41;;;;;;;2.50;2.30;;;14.70;99.90;;;;;;5065239;28;20218;-44
2021/05/25 12:55:11;;;;;;;1.60;1.50;;;14.70;99.90;;;;;;5074333;28;20193;-45
2021/05/25 12:57:45;;;;;;;2.00;1.10;;;14.60;99.90;;;;;;5073093;28;20572;-45